Preview of NWS' New Version of Forecast
This preview is not operational and should not be used for support decisions.

Terminal Aerodrome Forecast (TAF)

Issued by National Weather Service (NWS)

                            
680 
FTUS42 KMFL 220543
TAFMIA
TAF
KMIA 220543Z 2206/2312 09015KT P6SM FEW025 SCT035
     FM221400 10015G25KT P6SM SCT025 BKN040
     FM222100 09011KT P6SM SCT025 SCT040
     FM230900 10007KT P6SM SCT025 SCT040=